Time,TemperatureF,DewpointF,PressureIn,WindDirection,WindDirectionDegrees,WindSpeedMPH,WindSpeedGustMPH,Humidity,HourlyPrecipIn,Conditions,Clouds,dailyrainin,SoftwareType,DateUTC
2013-04-22 00:03:00,57.9,54.1,30.02,ESE,112,8.9,-999.0,87,-99.99,,,0.00,Acu-Link.com,2013-04-22 05:03:00,
2013-04-22 00:18:00,57.2,54.0,30.02,SE,135,11.4,-999.0,89,-99.99,,,0.00,Acu-Link.com,2013-04-22 05:18:00,
2013-04-22 00:33:00,56.7,54.1,30.02,SE,135,9.8,-999.0,91,-99.99,,,0.00,Acu-Link.com,2013-04-22 05:33:00,
2013-04-22 00:48:00,56.1,54.1,30.02,SE,135,9.4,-999.0,93,-99.99,,,0.00,Acu-Link.com,2013-04-22 05:48:00,
2013-04-22 01:03:00,55.8,54.1,30.01,SSE,157,11.9,-999.0,94,-99.99,,,0.00,Acu-Link.com,2013-04-22 06:03:00,
2013-04-22 01:18:00,55.4,54.0,30.02,ESE,112,6.7,-999.0,95,-99.99,,,0.00,Acu-Link.com,2013-04-22 06:18:00,
2013-04-22 01:33:00,55.0,54.2,30.02,ESE,112,8.9,-999.0,97,-99.99,,,0.00,Acu-Link.com,2013-04-22 06:33:00,
2013-04-22 01:49:00,54.5,53.9,30.02,SE,135,9.8,-999.0,98,-99.99,,,0.00,Acu-Link.com,2013-04-22 06:49:00,
2013-04-22 02:04:00,54.3,53.8,30.00,SE,135,9.4,-999.0,98,-99.99,,,0.00,Acu-Link.com,2013-04-22 07:04:00,
2013-04-22 02:19:00,54.1,53.6,29.99,ESE,112,8.9,-999.0,98,-99.99,,,0.00,Acu-Link.com,2013-04-22 07:19:00,
2013-04-22 02:34:00,53.6,53.0,29.99,SE,135,9.8,-999.0,98,-99.99,,,0.00,Acu-Link.com,2013-04-22 07:34:00,
2013-04-22 02:49:00,53.6,53.0,29.98,SE,135,8.3,-999.0,98,-99.99,,,0.00,Acu-Link.com,2013-04-22 07:49:00,
2013-04-22 03:04:00,53.2,52.7,29.98,ESE,112,6.7,-999.0,98,-99.99,,,0.00,Acu-Link.com,2013-04-22 08:04:00,
2013-04-22 03:19:00,53.2,52.7,29.98,ESE,112,8.9,-999.0,98,-99.99,,,0.00,Acu-Link.com,2013-04-22 08:19:00,
2013-04-22 03:34:00,52.7,52.2,29.97,ESE,112,8.3,-999.0,98,-99.99,,,0.00,Acu-Link.com,2013-04-22 08:34:00,
2013-04-22 03:49:00,52.7,52.2,29.97,SSW,202,11.9,-999.0,98,-99.99,,,0.00,Acu-Link.com,2013-04-22 08:49:00,
2013-04-22 04:04:00,52.7,52.2,29.96,SE,135,7.8,-999.0,98,-99.99,,,0.00,Acu-Link.com,2013-04-22 09:04:00,
2013-04-22 04:19:00,52.5,52.0,29.96,SE,135,10.3,-999.0,98,-99.99,,,0.00,Acu-Link.com,2013-04-22 09:19:00,
2013-04-22 04:34:00,52.2,51.6,29.95,ESE,112,8.3,-999.0,98,-99.99,,,0.00,Acu-Link.com,2013-04-22 09:34:00,
2013-04-22 04:49:00,52.3,51.8,29.95,ESE,112,9.4,-999.0,98,-99.99,,,0.00,Acu-Link.com,2013-04-22 09:49:00,
2013-04-22 05:04:00,52.7,52.2,29.95,ESE,112,8.3,-999.0,98,-99.99,,,0.00,Acu-Link.com,2013-04-22 10:04:00,
2013-04-22 05:19:00,52.5,52.0,29.94,ESE,112,8.9,-999.0,98,-99.99,,,0.00,Acu-Link.com,2013-04-22 10:19:00,
2013-04-22 05:34:00,52.3,51.8,29.94,ESE,112,9.8,-999.0,98,-99.99,,,0.00,Acu-Link.com,2013-04-22 10:34:00,
2013-04-22 05:49:00,52.0,51.4,29.94,SE,135,8.3,-999.0,98,-99.99,,,0.00,Acu-Link.com,2013-04-22 10:49:00,
2013-04-22 06:04:00,51.8,51.3,29.94,SE,135,7.4,-999.0,98,-99.99,,,0.00,Acu-Link.com,2013-04-22 11:04:00,
2013-04-22 06:20:00,51.8,51.3,29.94,SE,135,6.3,-999.0,98,-99.99,,,0.00,Acu-Link.com,2013-04-22 11:20:00,
2013-04-22 06:35:00,51.3,50.7,29.95,SE,135,6.7,-999.0,98,-99.99,,,0.00,Acu-Link.com,2013-04-22 11:35:00,
2013-04-22 06:50:00,51.1,50.5,29.95,ESE,112,9.4,-999.0,98,-99.99,,,0.00,Acu-Link.com,2013-04-22 11:50:00,
2013-04-22 07:05:00,50.9,50.4,29.94,SSE,157,9.4,-999.0,98,-99.99,,,0.00,Acu-Link.com,2013-04-22 12:05:00,
2013-04-22 07:20:00,51.3,50.7,29.95,SE,135,7.8,-999.0,98,-99.99,,,0.00,Acu-Link.com,2013-04-22 12:20:00,
2013-04-22 07:35:00,52.0,51.4,29.95,SE,135,11.4,-999.0,98,-99.99,,,0.00,Acu-Link.com,2013-04-22 12:35:00,
2013-04-22 07:50:00,52.7,52.2,29.94,SSE,157,12.5,-999.0,98,-99.99,,,0.00,Acu-Link.com,2013-04-22 12:50:00,
2013-04-22 08:05:00,54.0,53.4,29.94,SE,135,8.9,-999.0,98,-99.99,,,0.00,Acu-Link.com,2013-04-22 13:05:00,
2013-04-22 08:20:00,54.9,53.7,29.94,SSE,157,7.8,-999.0,96,-99.99,,,0.00,Acu-Link.com,2013-04-22 13:20:00,
2013-04-22 08:35:00,55.9,54.5,29.94,SSE,157,11.4,-999.0,95,-99.99,,,0.00,Acu-Link.com,2013-04-22 13:35:00,
2013-04-22 08:50:00,56.8,55.4,29.94,SSE,157,7.8,-999.0,95,-99.99,,,0.00,Acu-Link.com,2013-04-22 13:50:00,
2013-04-22 09:05:00,57.6,56.4,29.94,South,180,16.1,-999.0,96,-99.99,,,0.00,Acu-Link.com,2013-04-22 14:05:00,
2013-04-22 09:20:00,58.5,57.6,29.93,SSW,202,11.9,-999.0,97,-99.99,,,0.00,Acu-Link.com,2013-04-22 14:20:00,
2013-04-22 09:35:00,59.0,57.9,29.92,South,180,13.4,-999.0,96,-99.99,,,0.00,Acu-Link.com,2013-04-22 14:35:00,
2013-04-22 09:51:00,60.6,58.6,29.92,SSE,157,12.5,-999.0,93,-99.99,,,0.00,Acu-Link.com,2013-04-22 14:51:00,
2013-04-22 10:06:00,60.8,59.1,29.91,SE,135,14.5,-999.0,94,-99.99,,,0.00,Acu-Link.com,2013-04-22 15:06:00,
2013-04-22 10:21:00,62.1,60.0,29.90,SSE,157,8.3,-999.0,93,-99.99,,,0.00,Acu-Link.com,2013-04-22 15:21:00,
2013-04-22 10:36:00,62.4,60.4,29.92,SSE,157,11.4,-999.0,93,-99.99,,,0.00,Acu-Link.com,2013-04-22 15:36:00,
2013-04-22 10:51:00,63.3,60.6,29.92,South,180,9.4,-999.0,91,-99.99,,,0.00,Acu-Link.com,2013-04-22 15:51:00,
2013-04-22 11:06:00,64.9,61.3,29.91,SSW,202,9.4,-999.0,88,-99.99,,,0.00,Acu-Link.com,2013-04-22 16:06:00,
2013-04-22 11:21:00,66.4,60.7,29.90,South,180,15.4,-999.0,82,-99.99,,,0.00,Acu-Link.com,2013-04-22 16:21:00,
2013-04-22 11:36:00,67.8,61.4,29.89,South,180,17.7,-999.0,80,-99.99,,,0.00,Acu-Link.com,2013-04-22 16:36:00,
2013-04-22 11:51:00,70.9,62.6,29.89,SSE,157,15.0,-999.0,75,-99.99,,,0.00,Acu-Link.com,2013-04-22 16:51:00,
2013-04-22 12:06:00,70.9,61.0,29.88,SSW,202,11.4,-999.0,71,-99.99,,,0.00,Acu-Link.com,2013-04-22 17:06:00,
2013-04-22 12:21:00,72.0,61.2,29.88,SSW,202,11.9,-999.0,69,-99.99,,,0.00,Acu-Link.com,2013-04-22 17:21:00,
2013-04-22 12:36:00,72.1,61.8,29.88,South,180,14.1,-999.0,70,-99.99,,,0.00,Acu-Link.com,2013-04-22 17:36:00,
2013-04-22 12:51:00,73.6,61.5,29.86,SSW,202,14.1,-999.0,66,-99.99,,,0.00,Acu-Link.com,2013-04-22 17:51:00,
2013-04-22 13:06:00,74.7,61.2,29.85,South,180,11.9,-999.0,63,-99.99,,,0.00,Acu-Link.com,2013-04-22 18:06:00,
2013-04-22 13:21:00,75.0,61.1,29.84,South,180,14.1,-999.0,62,-99.99,,,0.00,Acu-Link.com,2013-04-22 18:21:00,
2013-04-22 13:36:00,76.8,61.9,29.83,SSE,157,14.5,-999.0,60,-99.99,,,0.00,Acu-Link.com,2013-04-22 18:36:00,
2013-04-22 13:51:00,77.7,61.3,29.82,SSW,202,16.1,-999.0,57,-99.99,,,0.00,Acu-Link.com,2013-04-22 18:51:00,
2013-04-22 14:06:00,77.7,61.7,29.81,South,180,17.0,-999.0,58,-99.99,,,0.00,Acu-Link.com,2013-04-22 19:06:00,
2013-04-22 14:22:00,80.6,62.4,29.80,South,180,8.9,-999.0,54,-99.99,,,0.00,Acu-Link.com,2013-04-22 19:22:00,
2013-04-22 14:37:00,81.1,60.7,29.79,SSW,202,6.3,-999.0,50,-99.99,,,0.00,Acu-Link.com,2013-04-22 19:37:00,
2013-04-22 14:52:00,81.5,61.0,29.78,South,180,9.8,-999.0,50,-99.99,,,0.00,Acu-Link.com,2013-04-22 19:52:00,
2013-04-22 15:07:00,81.0,60.5,29.77,SSE,157,9.4,-999.0,50,-99.99,,,0.00,Acu-Link.com,2013-04-22 20:07:00,
2013-04-22 15:22:00,81.3,59.7,29.77,South,180,14.1,-999.0,48,-99.99,,,0.00,Acu-Link.com,2013-04-22 20:22:00,
2013-04-22 15:37:00,81.9,59.6,29.75,SW,225,14.1,-999.0,47,-99.99,,,0.00,Acu-Link.com,2013-04-22 20:37:00,
2013-04-22 15:52:00,84.2,58.6,29.74,South,180,11.9,-999.0,42,-99.99,,,0.00,Acu-Link.com,2013-04-22 20:52:00,
2013-04-22 16:07:00,83.3,59.1,29.73,South,180,12.5,-999.0,44,-99.99,,,0.00,Acu-Link.com,2013-04-22 21:07:00,
2013-04-22 16:22:00,83.8,58.3,29.73,SSE,157,13.0,-999.0,42,-99.99,,,0.00,Acu-Link.com,2013-04-22 21:22:00,
2013-04-22 16:37:00,84.4,58.8,29.70,SSW,202,14.1,-999.0,42,-99.99,,,0.00,Acu-Link.com,2013-04-22 21:37:00,
2013-04-22 16:52:00,84.7,59.1,29.69,SSE,157,11.4,-999.0,42,-99.99,,,0.00,Acu-Link.com,2013-04-22 21:52:00,
2013-04-22 17:07:00,85.3,60.2,29.69,SSE,157,14.5,-999.0,43,-99.99,,,0.00,Acu-Link.com,2013-04-22 22:07:00,
2013-04-22 17:22:00,85.1,60.1,29.68,SSE,157,15.0,-999.0,43,-99.99,,,0.00,Acu-Link.com,2013-04-22 22:22:00,
2013-04-22 17:37:00,84.9,59.9,29.66,SSE,157,12.5,-999.0,43,-99.99,,,0.00,Acu-Link.com,2013-04-22 22:37:00,
2013-04-22 17:53:00,85.1,60.7,29.66,SE,135,15.4,-999.0,44,-99.99,,,0.00,Acu-Link.com,2013-04-22 22:53:00,
2013-04-22 18:08:00,84.0,62.2,29.65,South,180,14.5,-999.0,48,-99.99,,,0.00,Acu-Link.com,2013-04-22 23:08:00,
2013-04-22 18:23:00,83.1,62.0,29.65,SE,135,16.6,-999.0,49,-99.99,,,0.02,Acu-Link.com,2013-04-22 23:23:00,
2013-04-22 18:38:00,82.2,62.3,29.64,SE,135,18.1,-999.0,51,-99.99,,,0.11,Acu-Link.com,2013-04-22 23:38:00,
2013-04-22 18:53:00,81.3,62.0,29.64,SE,135,22.1,-999.0,52,-99.99,,,0.19,Acu-Link.com,2013-04-22 23:53:00,
2013-04-22 19:08:00,80.6,61.9,29.64,SE,135,21.3,-999.0,53,-99.99,,,0.50,Acu-Link.com,2013-04-23 00:08:00,
2013-04-22 19:23:00,79.3,61.2,29.64,SSE,157,19.7,-999.0,54,-99.99,,,0.70,Acu-Link.com,2013-04-23 00:23:00,
2013-04-22 19:38:00,78.6,60.6,29.63,SE,135,19.7,-999.0,54,-99.99,,,1.17,Acu-Link.com,2013-04-23 00:38:00,
2013-04-22 19:53:00,77.5,60.6,29.62,SE,135,20.6,-999.0,56,-99.99,,,1.35,Acu-Link.com,2013-04-23 00:53:00,
2013-04-22 20:08:00,77.0,60.6,29.63,SE,135,14.5,-999.0,57,-99.99,,,1.38,Acu-Link.com,2013-04-23 01:08:00,
2013-04-22 20:23:00,75.9,60.5,29.63,SE,135,11.0,-999.0,59,-99.99,,,1.42,Acu-Link.com,2013-04-23 01:23:00,
2013-04-22 20:38:00,75.4,60.5,29.63,ESE,112,11.4,-999.0,60,-99.99,,,1.54,Acu-Link.com,2013-04-23 01:38:00,
2013-04-22 20:54:00,74.7,60.3,29.64,SE,135,11.0,-999.0,61,-99.99,,,1.56,Acu-Link.com,2013-04-23 01:54:00,
2013-04-22 21:09:00,73.8,59.9,29.64,SSE,157,14.1,-999.0,62,-99.99,,,1.56,Acu-Link.com,2013-04-23 02:09:00,
2013-04-22 21:24:00,73.6,60.2,29.64,SE,135,14.5,-999.0,63,-99.99,,,1.56,Acu-Link.com,2013-04-23 02:24:00,
2013-04-22 21:39:00,72.9,60.0,29.65,ESE,112,11.9,-999.0,64,-99.99,,,1.56,Acu-Link.com,2013-04-23 02:39:00,
2013-04-22 21:54:00,71.6,60.0,29.65,ESE,112,9.8,-999.0,67,-99.99,,,1.56,Acu-Link.com,2013-04-23 02:54:00,
2013-04-22 22:09:00,71.6,60.5,29.66,ESE,112,14.5,-999.0,68,-99.99,,,1.56,Acu-Link.com,2013-04-23 03:09:00,
2013-04-22 22:24:00,72.1,60.6,29.65,SE,135,11.9,-999.0,67,-99.99,,,1.56,Acu-Link.com,2013-04-23 03:24:00,
2013-04-22 22:39:00,71.6,60.5,29.66,SSE,157,14.1,-999.0,68,-99.99,,,1.56,Acu-Link.com,2013-04-23 03:39:00,
2013-04-22 22:54:00,71.1,60.4,29.66,SSE,157,10.3,-999.0,69,-99.99,,,1.56,Acu-Link.com,2013-04-23 03:54:00,
2013-04-22 23:09:00,70.2,60.3,29.66,ESE,112,9.4,-999.0,71,-99.99,,,1.56,Acu-Link.com,2013-04-23 04:09:00,
2013-04-22 23:24:00,69.1,60.4,29.67,ESE,112,7.4,-999.0,74,-99.99,,,1.56,Acu-Link.com,2013-04-23 04:24:00,
2013-04-22 23:39:00,68.2,60.3,29.67,ESE,112,9.8,-999.0,76,-99.99,,,1.56,Acu-Link.com,2013-04-23 04:39:00,
2013-04-22 23:54:00,65.1,60.8,29.69,North,0,15.4,-999.0,86,-99.99,,,1.56,Acu-Link.com,2013-04-23 04:54:00,